createdAt,value
2023-05-14T00:03:16.051Z,101920.69
2023-05-14T00:06:38.037Z,101917.28
2023-05-14T00:09:59.670Z,101913.19
2023-05-14T00:13:21.299Z,101928.78
2023-05-14T00:16:44.390Z,101928.09
2023-05-14T00:20:07.951Z,101930.84
2023-05-14T00:23:29.790Z,101931.88
2023-05-14T00:26:51.205Z,101933.69
2023-05-14T00:30:13.583Z,101932.94
2023-05-14T00:33:36.902Z,101927.81
2023-05-14T00:36:58.836Z,101921.81
2023-05-14T00:40:21.406Z,101928.84
2023-05-14T00:43:43.426Z,101922.84
2023-05-14T00:47:06.097Z,101921.13
2023-05-14T00:50:29.228Z,101925.53
2023-05-14T00:53:52.039Z,101930.84
2023-05-14T00:57:14.069Z,101928.31
2023-05-14T01:00:36.380Z,101925.78
2023-05-14T01:03:59.523Z,101931.94
2023-05-14T01:07:30.812Z,101927.66
2023-05-14T01:10:57.696Z,101934.72
2023-05-14T01:14:23.154Z,101928.75
2023-05-14T01:17:57.837Z,101926.28
2023-05-14T01:21:40.562Z,101934.19
2023-05-14T01:25:01.957Z,101936.84
2023-05-14T01:28:33.932Z,101930.88
2023-05-14T01:31:58.781Z,101935.22
2023-05-14T01:35:23.689Z,101936.16
2023-05-14T01:38:48.423Z,101926.69
2023-05-14T01:42:11.566Z,101936.25
2023-05-14T01:45:36.653Z,101935.41
2023-05-14T01:48:58.635Z,101937.19
2023-05-14T01:52:21.383Z,101945.09
2023-05-14T01:55:44.624Z,101937.34
2023-05-14T01:59:06.518Z,101938.34
2023-05-14T02:02:28.473Z,101945.34
2023-05-14T02:05:50.023Z,101944.56
2023-05-14T02:09:12.037Z,101949.81
2023-05-14T02:12:35.315Z,101948.16
2023-05-14T02:15:57.147Z,101955.13
2023-05-14T02:19:19.035Z,101941.28
2023-05-14T02:22:42.340Z,101955.19
2023-05-14T02:26:04.346Z,101950.03
2023-05-14T02:29:27.570Z,101952.66
2023-05-14T02:32:49.376Z,101950.06
2023-05-14T02:36:10.924Z,101950.91
2023-05-14T02:39:32.865Z,101938.75
2023-05-14T02:42:54.894Z,101943.94
2023-05-14T02:46:18.280Z,101936.06
2023-05-14T02:49:40.519Z,101944.56
2023-05-14T02:53:02.487Z,101947.03
2023-05-14T02:56:24.417Z,101958.19
2023-05-14T02:59:46.228Z,101959.81
2023-05-14T03:03:09.795Z,101952.78
2023-05-14T03:06:32.375Z,101951.84
2023-05-14T03:09:54.061Z,101954.31
2023-05-14T03:13:18.027Z,101950.53
2023-05-14T03:16:40.266Z,101951.81
2023-05-14T03:20:03.472Z,101946.09
2023-05-14T03:23:25.431Z,101952.44
2023-05-14T03:26:47.166Z,101943.09
2023-05-14T03:30:10.988Z,101949.47
2023-05-14T03:33:32.938Z,101939.19
2023-05-14T03:36:55.886Z,101942.75
2023-05-14T03:40:18.026Z,101944.47
2023-05-14T03:43:39.799Z,101941.16
2023-05-14T03:47:01.308Z,101938.09
2023-05-14T03:50:25.603Z,101930.78
2023-05-14T03:53:48.877Z,101930.56
2023-05-14T03:57:10.764Z,101941.53
2023-05-14T04:00:32.849Z,101934.91
2023-05-14T04:03:54.931Z,101930.94
2023-05-14T04:07:16.617Z,101930.28
2023-05-14T04:10:39.822Z,101926.91
2023-05-14T04:14:01.927Z,101931.22
2023-05-14T04:17:24.030Z,101932.25
2023-05-14T04:20:45.851Z,101938.47
2023-05-14T04:24:08.391Z,101926.34
2023-05-14T04:27:31.601Z,101936.91
2023-05-14T04:30:53.167Z,101931.59
2023-05-14T04:34:14.969Z,101924.59
2023-05-14T04:37:36.833Z,101924.44
2023-05-14T04:40:58.740Z,101924.75
2023-05-14T04:44:21.958Z,101923.47
2023-05-14T04:47:45.235Z,101928.56
2023-05-14T04:51:07.265Z,101920.66
2023-05-14T04:54:29.358Z,101919.63
2023-05-14T04:57:51.094Z,101931.97
2023-05-14T05:01:15.077Z,101930.59
2023-05-14T05:04:36.862Z,101931.91
2023-05-14T05:07:58.714Z,101922.16
2023-05-14T05:11:21.445Z,101925.53
2023-05-14T05:14:43.236Z,101924.81
2023-05-14T05:18:06.550Z,101918.34
2023-05-14T05:21:28.580Z,101922.63
2023-05-14T05:24:50.346Z,101914.25
2023-05-14T05:28:12.301Z,101920.53
2023-05-14T05:31:34.568Z,101919.81
2023-05-14T05:34:58.198Z,101922.81
2023-05-14T05:38:20.001Z,101919.84
2023-05-14T05:41:41.954Z,101918.34
2023-05-14T05:45:03.961Z,101914.72
2023-05-14T05:48:25.860Z,101920.88
2023-05-14T05:51:49.056Z,101919.13
2023-05-14T05:55:12.412Z,101915.44
2023-05-14T05:58:34.801Z,101914.38
2023-05-14T06:01:56.644Z,101916.50
2023-05-14T06:05:19.446Z,101918.31
2023-05-14T06:08:42.750Z,101922.00
2023-05-14T06:12:05.256Z,101920.09
2023-05-14T06:15:27.371Z,101915.81
2023-05-14T06:18:49.508Z,101894.59
2023-05-14T06:22:11.428Z,101905.66
2023-05-14T06:25:34.688Z,101909.63
2023-05-14T06:28:56.141Z,101909.28
2023-05-14T06:32:18.190Z,101905.34
2023-05-14T06:35:40.389Z,101905.50
2023-05-14T06:39:02.111Z,101908.66
2023-05-14T06:42:25.245Z,101902.00
2023-05-14T06:45:50.178Z,101904.56
2023-05-14T06:49:12.170Z,101901.63
2023-05-14T06:52:33.748Z,101908.91
2023-05-14T06:55:56.442Z,101911.34
2023-05-14T06:59:19.466Z,101910.88
2023-05-14T07:02:41.291Z,101905.03
2023-05-14T07:06:02.849Z,101906.53
2023-05-14T07:09:24.848Z,101901.78
2023-05-14T07:12:46.531Z,101893.22
2023-05-14T07:16:10.822Z,101895.00
2023-05-14T07:19:32.577Z,101887.56
2023-05-14T07:22:54.630Z,101884.50
2023-05-14T07:26:16.450Z,101891.97
2023-05-14T07:29:38.173Z,101878.91
2023-05-14T07:33:01.933Z,101876.44
2023-05-14T07:36:24.206Z,101876.69
2023-05-14T07:39:46.378Z,101872.75
2023-05-14T07:43:08.588Z,101866.63
2023-05-14T07:46:30.703Z,101878.06
2023-05-14T07:49:57.432Z,101864.69
2023-05-14T07:53:19.217Z,101861.91
2023-05-14T07:56:41.432Z,101865.09
2023-05-14T08:00:03.460Z,101860.41
2023-05-14T08:03:25.331Z,101865.19
2023-05-14T08:06:48.768Z,101854.78
2023-05-14T08:10:11.398Z,101852.88
2023-05-14T08:13:33.345Z,101854.97
2023-05-14T08:16:55.060Z,101853.09
2023-05-14T08:20:16.817Z,101851.19
2023-05-14T08:23:39.886Z,101849.56
2023-05-14T08:27:02.403Z,101839.28
2023-05-14T08:30:24.857Z,101834.56
2023-05-14T08:33:46.696Z,101838.81
2023-05-14T08:37:08.719Z,101833.00
2023-05-14T08:40:32.112Z,101828.09
2023-05-14T08:44:10.061Z,101825.44
2023-05-14T08:47:32.717Z,101831.94
2023-05-14T08:50:54.525Z,101824.28
2023-05-14T08:54:18.122Z,101818.75
2023-05-14T08:57:41.703Z,101822.59
2023-05-14T09:01:03.912Z,101820.81
2023-05-14T09:04:26.394Z,101810.47
2023-05-14T09:07:48.218Z,101808.97
2023-05-14T09:11:09.708Z,101801.31
2023-05-14T09:14:34.665Z,101810.28
2023-05-14T09:17:56.602Z,101801.25
2023-05-14T09:21:19.370Z,101798.78
2023-05-14T09:24:41.768Z,101802.22
2023-05-14T09:28:08.156Z,101790.84
2023-05-14T09:31:31.579Z,101788.63
2023-05-14T09:34:53.589Z,101791.00
2023-05-14T09:38:16.464Z,101792.53
2023-05-14T09:41:38.482Z,101778.75
2023-05-14T09:45:00.499Z,101786.53
2023-05-14T09:48:24.518Z,101781.44
2023-05-14T09:51:46.162Z,101770.53
2023-05-14T09:55:08.712Z,101781.25
2023-05-14T09:58:30.908Z,101772.19
2023-05-14T10:01:54.256Z,101773.13
2023-05-14T10:05:17.757Z,101771.81
2023-05-14T10:08:44.976Z,101771.84
2023-05-14T10:12:07.632Z,101762.31
2023-05-14T10:15:38.267Z,101762.16
2023-05-14T10:19:07.439Z,101759.84
2023-05-14T10:22:34.921Z,101753.53
2023-05-14T10:25:57.223Z,101764.81
2023-05-14T10:29:19.290Z,101753.78
2023-05-14T10:32:42.156Z,101745.50
2023-05-14T10:36:07.121Z,101744.91
2023-05-14T10:39:43.931Z,101737.78
2023-05-14T10:43:06.361Z,101738.53
2023-05-14T10:46:28.343Z,101731.75
2023-05-14T10:49:50.614Z,101727.91
2023-05-14T10:53:14.247Z,101722.75
2023-05-14T10:56:38.502Z,101722.25
2023-05-14T11:00:02.400Z,101719.13
2023-05-14T11:03:24.271Z,101717.44
2023-05-14T11:06:48.162Z,101719.97
2023-05-14T11:10:12.287Z,101717.31
2023-05-14T11:13:35.512Z,101722.16
2023-05-14T11:16:58.676Z,101718.88
2023-05-14T11:20:22.115Z,101711.97
2023-05-14T11:23:43.819Z,101712.44
2023-05-14T11:27:06.421Z,101707.59
2023-05-14T11:30:29.587Z,101709.66
2023-05-14T11:33:53.795Z,101701.66
2023-05-14T11:37:17.766Z,101698.78
2023-05-14T11:40:39.719Z,101697.09
2023-05-14T11:44:01.569Z,101693.44
2023-05-14T11:47:24.711Z,101689.56
2023-05-14T11:50:48.649Z,101688.34
2023-05-14T11:54:10.759Z,101690.53
2023-05-14T11:57:32.795Z,101687.16
2023-05-14T12:00:57.170Z,101686.16
2023-05-14T12:04:22.642Z,101675.00
2023-05-14T12:07:46.499Z,101686.28
2023-05-14T12:11:10.078Z,101672.34
2023-05-14T12:14:32.091Z,101674.53
2023-05-14T12:17:53.925Z,101668.69
2023-05-14T12:21:17.219Z,101668.94
2023-05-14T12:24:40.382Z,101663.38
2023-05-14T12:28:02.499Z,101657.06
2023-05-14T12:31:29.999Z,101652.34
2023-05-14T12:34:52.062Z,101648.06
2023-05-14T12:38:15.264Z,101652.88
2023-05-14T12:41:37.025Z,101644.44
2023-05-14T12:45:00.895Z,101647.69
2023-05-14T12:48:22.687Z,101636.44
2023-05-14T12:51:44.550Z,101627.22
2023-05-14T12:55:09.002Z,101628.84
2023-05-14T12:58:31.151Z,101630.03
2023-05-14T13:01:53.157Z,101625.69
2023-05-14T13:05:15.313Z,101630.63
2023-05-14T13:08:37.060Z,101618.78
2023-05-14T13:12:00.235Z,101619.59
2023-05-14T13:15:22.473Z,101623.50
2023-05-14T13:18:44.384Z,101614.28
2023-05-14T13:22:06.143Z,101610.72
2023-05-14T13:25:28.534Z,101607.53
2023-05-14T13:28:51.779Z,101607.28
2023-05-14T13:32:13.262Z,101599.13
2023-05-14T13:35:35.796Z,101593.97
2023-05-14T13:38:57.931Z,101597.44
2023-05-14T13:42:19.615Z,101592.94
2023-05-14T13:45:42.772Z,101580.44
2023-05-14T13:49:05.908Z,101582.72
2023-05-14T13:52:27.988Z,101572.16
2023-05-14T13:55:49.900Z,101574.13
2023-05-14T13:59:12.352Z,101569.66
2023-05-14T14:02:35.578Z,101564.31
2023-05-14T14:09:19.412Z,101562.72
2023-05-14T14:12:41.498Z,101562.06
2023-05-14T14:16:04.630Z,101554.03
2023-05-14T14:19:28.025Z,101553.19
2023-05-14T14:22:50.015Z,101558.97
2023-05-14T14:26:11.848Z,101556.03
2023-05-14T14:29:34.575Z,101552.34
2023-05-14T14:32:56.920Z,101550.41
2023-05-14T14:36:20.231Z,101536.91
2023-05-14T14:39:42.137Z,101537.63
2023-05-14T14:43:07.519Z,101536.66
2023-05-14T14:46:29.266Z,101528.09
2023-05-14T14:49:51.296Z,101517.28
2023-05-14T14:53:14.402Z,101514.38
2023-05-14T14:56:36.511Z,101515.09
2023-05-14T14:59:59.471Z,101518.06
2023-05-14T15:03:22.939Z,101514.38
2023-05-14T15:06:44.988Z,101511.13
2023-05-14T15:10:09.357Z,101519.78
2023-05-14T15:13:31.327Z,101510.91
2023-05-14T15:16:53.763Z,101516.66
2023-05-14T15:20:15.894Z,101513.88
2023-05-14T15:23:37.798Z,101514.44
2023-05-14T15:27:00.860Z,101506.44
2023-05-14T15:30:22.826Z,101505.03
2023-05-14T15:33:44.400Z,101507.53
2023-05-14T15:37:06.483Z,101502.81
2023-05-14T15:40:28.898Z,101498.72
2023-05-14T15:43:52.108Z,101493.25
2023-05-14T15:47:13.650Z,101493.03
2023-05-14T15:50:35.417Z,101481.00
2023-05-14T15:53:57.378Z,101483.03
2023-05-14T15:57:20.225Z,101485.38
2023-05-14T16:00:43.574Z,101481.25
2023-05-14T16:04:05.770Z,101476.44
2023-05-14T16:07:27.870Z,101463.97
2023-05-14T16:10:49.532Z,101456.47
2023-05-14T16:14:10.959Z,101460.38
2023-05-14T16:17:34.018Z,101457.59
2023-05-14T16:20:55.890Z,101452.19
2023-05-14T16:24:19.723Z,101446.59
2023-05-14T16:27:41.714Z,101449.13
2023-05-14T16:31:03.940Z,101450.47
2023-05-14T16:34:27.180Z,101446.38
2023-05-14T16:37:49.102Z,101433.84
2023-05-14T16:41:11.306Z,101436.28
2023-05-14T16:44:33.062Z,101432.84
2023-05-14T16:47:55.484Z,101428.94
2023-05-14T16:51:18.920Z,101415.25
2023-05-14T16:54:40.671Z,101433.50
2023-05-14T16:58:02.491Z,101427.41
2023-05-14T17:01:24.348Z,101432.84
2023-05-14T17:04:46.295Z,101426.41
2023-05-14T17:08:09.584Z,101425.06
2023-05-14T17:11:31.563Z,101423.69
2023-05-14T17:14:53.339Z,101424.19
2023-05-14T17:18:15.566Z,101428.00
2023-05-14T17:21:37.359Z,101434.53
2023-05-14T17:25:01.251Z,101428.13
2023-05-14T17:28:24.673Z,101428.00
2023-05-14T17:31:46.875Z,101420.72
2023-05-14T17:35:10.446Z,101422.78
2023-05-14T17:38:32.271Z,101427.44
2023-05-14T17:41:55.401Z,101419.78
2023-05-14T17:45:20.858Z,101409.13
2023-05-14T17:48:42.790Z,101424.44
2023-05-14T17:52:05.082Z,101421.63
2023-05-14T17:55:27.025Z,101422.97
2023-05-14T17:58:50.874Z,101416.91
2023-05-14T18:02:12.546Z,101425.34
2023-05-14T18:05:34.883Z,101411.31
2023-05-14T18:08:56.542Z,101427.34
2023-05-14T18:12:18.691Z,101422.53
2023-05-14T18:15:41.969Z,101423.75
2023-05-14T18:19:04.201Z,101430.00
2023-05-14T18:22:25.896Z,101428.72
2023-05-14T18:25:48.092Z,101430.47
2023-05-14T18:29:10.146Z,101446.88
2023-05-14T18:32:33.415Z,101442.59
2023-05-14T18:35:55.281Z,101440.75
2023-05-14T18:39:17.174Z,101443.34
2023-05-14T18:42:38.779Z,101440.63
2023-05-14T18:46:01.183Z,101433.94
2023-05-14T18:49:24.324Z,101435.19
2023-05-14T18:52:46.363Z,101429.38
2023-05-14T18:56:08.092Z,101435.88
2023-05-14T18:59:29.805Z,101432.44
2023-05-14T19:02:51.713Z,101434.81
2023-05-14T19:06:14.912Z,101436.09
2023-05-14T19:09:36.938Z,101424.13
2023-05-14T19:12:58.838Z,101425.53
2023-05-14T19:16:21.355Z,101429.53
2023-05-14T19:19:43.256Z,101417.41
2023-05-14T19:23:08.250Z,101431.56
2023-05-14T19:26:30.322Z,101424.44
2023-05-14T19:29:52.151Z,101430.53
2023-05-14T19:33:14.183Z,101435.78
2023-05-14T19:36:35.994Z,101456.00
2023-05-14T19:39:58.951Z,101440.78
2023-05-14T19:43:21.125Z,101444.56
2023-05-14T19:46:43.047Z,101437.28
2023-05-14T19:50:05.290Z,101436.44
2023-05-14T19:53:29.931Z,101433.91
2023-05-14T19:56:53.229Z,101430.59
2023-05-14T20:00:15.682Z,101435.50
2023-05-14T20:03:37.723Z,101433.41
2023-05-14T20:06:59.363Z,101427.09
2023-05-14T20:10:21.086Z,101426.81
2023-05-14T20:13:44.155Z,101434.53
2023-05-14T20:17:06.959Z,101435.44
2023-05-14T20:20:32.095Z,101427.59
2023-05-14T20:23:54.859Z,101427.47
2023-05-14T20:27:16.562Z,101434.38
2023-05-14T20:30:40.233Z,101425.34
2023-05-14T20:34:02.258Z,101427.09
2023-05-14T20:37:24.159Z,101431.38
2023-05-14T20:40:46.022Z,101426.69
2023-05-14T20:44:07.944Z,101425.34
2023-05-14T20:47:33.031Z,101420.66
2023-05-14T20:50:54.832Z,101422.94
2023-05-14T20:54:16.931Z,101421.91
2023-05-14T20:57:39.907Z,101412.09
2023-05-14T21:01:01.882Z,101410.03
2023-05-14T21:04:27.603Z,101410.53
2023-05-14T21:07:49.132Z,101415.34
2023-05-14T21:11:11.014Z,101414.97
2023-05-14T21:14:32.879Z,101411.88
2023-05-14T21:17:54.957Z,101417.63
2023-05-14T21:21:18.404Z,101406.63
2023-05-14T21:24:40.478Z,101414.06
2023-05-14T21:28:02.250Z,101411.97
2023-05-14T21:31:24.174Z,101412.44
2023-05-14T21:34:45.898Z,101419.84
2023-05-14T21:38:09.576Z,101415.03
2023-05-14T21:41:34.090Z,101408.53
2023-05-14T21:44:55.998Z,101402.59
2023-05-14T21:48:17.949Z,101405.56
2023-05-14T21:51:39.811Z,101404.03
2023-05-14T21:55:03.069Z,101408.75
2023-05-14T21:58:25.112Z,101403.03
2023-05-14T22:02:05.311Z,101407.56
2023-05-14T22:05:28.409Z,101420.16
2023-05-14T22:08:50.003Z,101423.78
2023-05-14T22:12:12.983Z,101412.66
2023-05-14T22:15:34.518Z,101414.47
2023-05-14T22:18:56.505Z,101408.66
2023-05-14T22:22:18.353Z,101407.22
2023-05-14T22:25:40.166Z,101410.94
2023-05-14T22:29:03.358Z,101418.09
2023-05-14T22:32:25.588Z,101421.78
2023-05-14T22:35:47.414Z,101415.81
2023-05-14T22:39:11.186Z,101415.09
2023-05-14T22:42:33.915Z,101411.69
2023-05-14T22:45:57.225Z,101398.69
2023-05-14T22:49:19.286Z,101404.16
2023-05-14T22:52:42.115Z,101400.81
2023-05-14T22:56:04.381Z,101401.72
2023-05-14T22:59:26.052Z,101401.81
2023-05-14T23:02:49.420Z,101392.94
2023-05-14T23:06:13.879Z,101395.63
2023-05-14T23:09:35.822Z,101391.44
2023-05-14T23:12:57.374Z,101387.13
2023-05-14T23:16:19.202Z,101391.63
2023-05-14T23:19:42.193Z,101381.22
2023-05-14T23:23:04.220Z,101384.63
2023-05-14T23:26:25.935Z,101379.56
2023-05-14T23:29:47.651Z,101379.72
2023-05-14T23:33:09.790Z,101377.00
2023-05-14T23:36:33.519Z,101368.28
2023-05-14T23:39:55.437Z,101371.19
2023-05-14T23:43:17.207Z,101366.84
2023-05-14T23:46:39.018Z,101365.28
2023-05-14T23:50:00.786Z,101366.19
2023-05-14T23:53:23.969Z,101360.22
2023-05-14T23:56:45.972Z,101362.88
